Terminal Aerodrome Forecast
Issued by NWS St Louis, MO

Home | Current Version | Previous Version | Text Only | Print | Product List | Glossary On
Versions: 1 2 3 4 5 6 7 8 9 10 11 12 13 14 15 16
000
FTUS43 KLSX 241100
TAFCOU
TAF
KCOU 241130Z 2412/2512 11008KT P6SM SCT050 OVC080
     FM241400 16014G24KT P6SM SCT025 BKN060
      TEMPO 2414/2417 6SM -SHRA
     FM242100 17015G25KT 6SM -SHRA VCTS BKN035CB
     FM250300 15014KT P6SM BKN020
     FM250900 21009KT P6SM SCT030 BKN150=

USA.gov is the U.S. government's official web portal to all federal, state and local government web resources and services.